createdAt,value
2023-02-07T00:01:16.043Z,-7.40
2023-02-07T00:06:12.061Z,-7.60
2023-02-07T00:08:38.729Z,-7.60
2023-02-07T00:11:10.745Z,-7.70
2023-02-07T00:16:07.643Z,-7.00
2023-02-07T00:21:03.051Z,-6.80
2023-02-07T00:23:30.046Z,-7.00
2023-02-07T00:52:51.332Z,-7.90
2023-02-07T00:57:45.019Z,-8.10
2023-02-07T01:00:12.188Z,-8.20
2023-02-07T01:02:39.406Z,-8.20
2023-02-07T01:05:06.522Z,-8.20
2023-02-07T01:07:33.397Z,-8.20
2023-02-07T01:09:59.625Z,-8.10
2023-02-07T01:12:25.848Z,-8.10
2023-02-07T01:32:01.474Z,-8.10
2023-02-07T01:34:27.686Z,-8.20
2023-02-07T01:39:20.665Z,-8.20
2023-02-07T01:41:47.311Z,-8.20
2023-02-07T01:46:51.108Z,-8.10
2023-02-07T01:49:19.684Z,-8.20
2023-02-07T01:51:48.811Z,-8.20
2023-02-07T01:56:45.388Z,-8.00
2023-02-07T01:59:12.073Z,-8.00
2023-02-07T02:01:38.349Z,-7.80
2023-02-07T02:06:32.186Z,-8.00
2023-02-07T02:08:59.230Z,-8.00
2023-02-07T02:13:35.099Z,-8.10
2023-02-07T02:16:34.683Z,-8.20
2023-02-07T02:19:43.358Z,-8.10
2023-02-07T02:29:17.238Z,-8.10
2023-02-07T02:32:13.738Z,-8.70
2023-02-07T02:35:08.763Z,-8.50
2023-02-07T02:37:59.428Z,-8.50
2023-02-07T02:40:52.630Z,-8.50
2023-02-07T02:43:45.549Z,-8.50
2023-02-07T02:46:23.673Z,-8.50
2023-02-07T02:51:16.476Z,-8.50
2023-02-07T02:53:53.050Z,-8.60
2023-02-07T02:56:41.755Z,-8.50
2023-02-07T03:03:19.017Z,-8.60
2023-02-07T03:06:06.300Z,-8.70
2023-02-07T03:09:35.715Z,-8.70
2023-02-07T03:14:53.667Z,-8.70
2023-02-07T03:17:27.382Z,-8.60
2023-02-07T03:20:31.302Z,-8.50
2023-02-07T03:22:58.373Z,-8.70
2023-02-07T03:30:19.167Z,-8.40
2023-02-07T03:32:48.967Z,-8.40
2023-02-07T03:35:26.800Z,-8.50
2023-02-07T03:37:57.357Z,-8.50
2023-02-07T03:40:26.193Z,-8.60
2023-02-07T03:43:09.307Z,-8.50
2023-02-07T03:45:36.216Z,-7.60
2023-02-07T04:00:16.167Z,-8.10
2023-02-07T04:07:35.495Z,-9.00
2023-02-07T04:10:02.698Z,-8.90
2023-02-07T04:15:01.693Z,-8.90
2023-02-07T04:17:30.813Z,-9.00
2023-02-07T04:22:25.071Z,-9.10
2023-02-07T04:27:18.844Z,-9.00
2023-02-07T04:34:38.457Z,-9.00
2023-02-07T04:44:24.869Z,-9.10
2023-02-07T04:59:04.074Z,-9.00
2023-02-07T05:08:49.792Z,-9.10
2023-02-07T05:16:10.558Z,-9.30
2023-02-07T05:18:36.705Z,-9.10
2023-02-07T05:30:53.679Z,-8.90
2023-02-07T05:38:15.500Z,-8.80
2023-02-07T05:40:42.052Z,-8.80
2023-02-07T05:45:35.095Z,-8.70
2023-02-07T05:52:55.824Z,-8.60
2023-02-07T05:55:22.146Z,-8.70
2023-02-07T06:00:17.008Z,-8.80
2023-02-07T06:05:15.896Z,-8.80
2023-02-07T06:15:04.228Z,-8.80
2023-02-07T06:22:24.066Z,-8.80
2023-02-07T06:34:37.572Z,-8.30
2023-02-07T06:49:16.428Z,-7.30
2023-02-07T06:56:36.992Z,-6.40
2023-02-07T07:06:23.020Z,-5.00
2023-02-07T07:08:50.953Z,-4.80
2023-02-07T07:13:44.743Z,-4.90
2023-02-07T07:16:10.910Z,-4.90
2023-02-07T07:23:32.367Z,-5.30
2023-02-07T07:35:47.457Z,-3.30
2023-02-07T07:45:35.674Z,-2.50
2023-02-07T07:48:01.911Z,-2.30
2023-02-07T07:50:28.183Z,-1.70
2023-02-07T07:52:54.401Z,-0.90
2023-02-07T07:55:20.601Z,-0.90
2023-02-07T07:57:46.900Z,0.00
2023-02-07T08:00:13.983Z,0.00
2023-02-07T08:02:41.334Z,0.30
2023-02-07T08:05:10.380Z,0.60
2023-02-07T08:07:38.365Z,0.90
2023-02-07T08:10:05.194Z,1.20
2023-02-07T08:12:31.739Z,1.20
2023-02-07T08:14:58.422Z,1.20
2023-02-07T08:17:25.575Z,1.40
2023-02-07T08:19:52.392Z,2.00
2023-02-07T08:22:18.801Z,2.80
2023-02-07T08:24:45.001Z,2.90
2023-02-07T08:27:11.236Z,3.50
2023-02-07T08:29:38.735Z,3.80
2023-02-07T08:32:05.131Z,4.00
2023-02-07T08:34:36.692Z,3.90
2023-02-07T08:37:06.519Z,4.00
2023-02-07T08:39:37.761Z,4.00
2023-02-07T08:42:04.770Z,3.60
2023-02-07T08:44:31.743Z,3.60
2023-02-07T08:46:57.930Z,3.80
2023-02-07T08:49:24.203Z,4.10
2023-02-07T08:51:50.464Z,4.20
2023-02-07T08:54:16.669Z,4.20
2023-02-07T08:56:42.959Z,4.20
2023-02-07T08:59:09.210Z,4.40
2023-02-07T09:01:35.633Z,4.40
2023-02-07T09:04:01.872Z,4.60
2023-02-07T09:06:28.688Z,4.70
2023-02-07T09:08:54.878Z,4.50
2023-02-07T09:11:22.342Z,4.40
2023-02-07T09:13:49.669Z,4.40
2023-02-07T09:16:16.132Z,4.10
2023-02-07T09:18:42.444Z,4.30
2023-02-07T09:21:08.648Z,4.30
2023-02-07T09:23:35.339Z,4.60
2023-02-07T09:26:03.347Z,4.80
2023-02-07T09:28:29.988Z,5.00
2023-02-07T09:30:56.301Z,5.10
2023-02-07T09:33:23.910Z,4.90
2023-02-07T09:35:50.790Z,4.90
2023-02-07T09:38:19.119Z,4.50
2023-02-07T09:40:48.010Z,4.70
2023-02-07T09:43:40.905Z,4.50
2023-02-07T09:46:31.596Z,4.20
2023-02-07T09:50:51.430Z,3.90
2023-02-07T09:55:00.370Z,4.30
2023-02-07T09:57:40.812Z,4.40
2023-02-07T10:00:24.260Z,4.30
2023-02-07T10:03:21.598Z,4.00
2023-02-07T10:06:09.204Z,4.40
2023-02-07T10:08:45.633Z,4.60
2023-02-07T10:11:42.400Z,2.90
2023-02-07T10:14:56.453Z,3.40
2023-02-07T10:20:15.996Z,3.80
2023-02-07T10:23:01.489Z,4.30
2023-02-07T10:26:51.480Z,4.20
2023-02-07T10:30:15.462Z,2.90
2023-02-07T10:32:42.880Z,2.70
2023-02-07T10:35:21.510Z,3.40
2023-02-07T10:37:50.184Z,2.70
2023-02-07T10:40:21.277Z,1.80
2023-02-07T10:43:00.270Z,1.60
2023-02-07T10:45:29.866Z,1.90
2023-02-07T10:47:59.440Z,1.70
2023-02-07T10:50:30.185Z,1.80
2023-02-07T10:52:57.526Z,1.80
2023-02-07T10:55:45.944Z,2.40
2023-02-07T10:58:24.172Z,2.40
2023-02-07T11:00:54.345Z,2.90
2023-02-07T11:03:21.607Z,2.00
2023-02-07T11:05:57.484Z,2.10
2023-02-07T11:08:30.678Z,2.30
2023-02-07T11:10:58.398Z,2.40
2023-02-07T11:13:29.748Z,2.00
2023-02-07T11:16:08.172Z,1.60
2023-02-07T11:18:59.509Z,1.60
2023-02-07T11:21:44.360Z,1.50
2023-02-07T11:24:24.660Z,1.40
2023-02-07T11:27:01.698Z,1.30
2023-02-07T11:29:28.268Z,1.30
2023-02-07T11:31:55.299Z,1.40
2023-02-07T11:35:09.635Z,1.50
2023-02-07T11:37:37.772Z,1.30
2023-02-07T11:40:46.256Z,1.40
2023-02-07T11:43:17.242Z,1.30
2023-02-07T11:45:51.655Z,1.40
2023-02-07T11:48:24.726Z,1.40
2023-02-07T11:50:55.384Z,1.60
2023-02-07T11:53:37.923Z,1.80
2023-02-07T11:56:04.693Z,1.80
2023-02-07T11:58:38.551Z,1.60
2023-02-07T12:01:05.807Z,1.40
2023-02-07T12:03:50.235Z,1.30
2023-02-07T12:06:19.073Z,1.70
2023-02-07T12:08:45.457Z,1.90
2023-02-07T12:11:19.172Z,1.80
2023-02-07T12:13:53.271Z,1.80
2023-02-07T12:16:23.520Z,1.60
2023-02-07T12:19:04.597Z,1.50
2023-02-07T12:21:37.146Z,1.50
2023-02-07T12:24:15.460Z,1.70
2023-02-07T12:27:29.825Z,1.70
2023-02-07T12:30:16.578Z,1.60
2023-02-07T12:33:30.686Z,1.30
2023-02-07T12:36:28.251Z,1.20
2023-02-07T12:42:03.876Z,3.80
2023-02-07T12:44:44.722Z,1.20
2023-02-07T12:47:24.002Z,0.70
2023-02-07T12:50:47.645Z,0.80
2023-02-07T12:53:53.775Z,0.90
2023-02-07T12:56:47.412Z,0.80
2023-02-07T13:02:14.241Z,0.80
2023-02-07T13:10:59.368Z,0.90
2023-02-07T13:13:31.947Z,1.00
2023-02-07T13:18:37.892Z,1.10
2023-02-07T13:21:23.704Z,1.10
2023-02-07T13:23:50.261Z,1.10
2023-02-07T13:26:19.684Z,1.10
2023-02-07T13:29:00.877Z,1.10
2023-02-07T13:32:04.847Z,1.20
2023-02-07T13:35:35.005Z,1.30
2023-02-07T13:39:42.251Z,1.20
2023-02-07T13:43:02.769Z,0.80
2023-02-07T13:47:11.664Z,0.50
2023-02-07T13:51:19.300Z,0.50
2023-02-07T13:54:02.325Z,0.40
2023-02-07T13:56:51.797Z,0.50
2023-02-07T13:59:41.582Z,0.60
2023-02-07T14:02:20.676Z,0.50
2023-02-07T14:04:57.379Z,0.30
2023-02-07T14:07:33.210Z,0.40
2023-02-07T14:09:59.447Z,0.40
2023-02-07T14:12:30.902Z,0.50
2023-02-07T14:18:49.985Z,0.50
2023-02-07T14:21:26.156Z,0.50
2023-02-07T14:24:17.916Z,0.40
2023-02-07T14:27:27.437Z,0.20
2023-02-07T14:29:56.016Z,0.20
2023-02-07T14:32:31.466Z,0.20
2023-02-07T14:35:33.019Z,0.20
2023-02-07T14:38:12.971Z,0.20
2023-02-07T14:41:10.085Z,0.20
2023-02-07T14:44:07.107Z,0.20
2023-02-07T14:46:46.333Z,0.10
2023-02-07T14:49:22.790Z,0.10
2023-02-07T14:51:55.020Z,2.80
2023-02-07T14:55:47.477Z,0.10
2023-02-07T14:58:39.407Z,0.00
2023-02-07T15:01:11.672Z,0.00
2023-02-07T15:03:38.093Z,-0.10
2023-02-07T15:06:21.022Z,0.10
2023-02-07T15:08:57.789Z,-0.20
2023-02-07T15:11:26.650Z,-0.20
2023-02-07T15:14:01.967Z,0.50
2023-02-07T15:16:33.120Z,-0.20
2023-02-07T15:19:09.480Z,-0.20
2023-02-07T15:21:42.731Z,-0.30
2023-02-07T15:24:45.983Z,-0.30
2023-02-07T15:27:25.408Z,-0.30
2023-02-07T15:30:01.894Z,-0.30
2023-02-07T15:32:41.817Z,-0.10
2023-02-07T15:35:19.075Z,-0.30
2023-02-07T15:37:46.734Z,-0.20
2023-02-07T15:40:14.795Z,-0.40
2023-02-07T15:42:55.953Z,-0.40
2023-02-07T15:45:29.778Z,-0.40
2023-02-07T15:48:01.034Z,-0.40
2023-02-07T15:50:29.494Z,-0.40
2023-02-07T15:52:57.265Z,-0.40
2023-02-07T15:55:47.562Z,-0.40
2023-02-07T15:59:16.276Z,-0.40
2023-02-07T16:01:42.475Z,-0.50
2023-02-07T16:04:09.106Z,-0.50
2023-02-07T16:06:35.583Z,-0.40
2023-02-07T16:09:02.900Z,-0.50
2023-02-07T16:11:35.679Z,-0.50
2023-02-07T16:14:22.723Z,-0.50
2023-02-07T16:16:54.459Z,-0.50
2023-02-07T16:19:32.546Z,-0.60
2023-02-07T16:22:13.346Z,-0.50
2023-02-07T16:24:42.199Z,-0.60
2023-02-07T16:27:13.561Z,-0.60
2023-02-07T16:29:41.088Z,-0.60
2023-02-07T16:32:12.564Z,-0.60
2023-02-07T16:34:50.318Z,-0.60
2023-02-07T16:37:25.116Z,-0.60
2023-02-07T16:39:51.519Z,-0.60
2023-02-07T16:42:19.293Z,-0.60
2023-02-07T16:44:48.818Z,-0.70
2023-02-07T16:47:17.306Z,-0.10
2023-02-07T16:49:46.977Z,-0.60
2023-02-07T16:52:13.917Z,-0.60
2023-02-07T16:54:40.348Z,-0.60
2023-02-07T16:57:06.543Z,-0.70
2023-02-07T16:59:33.043Z,-0.70
2023-02-07T17:01:59.707Z,-0.70
2023-02-07T17:04:26.282Z,-0.70
2023-02-07T17:06:52.980Z,-0.70
2023-02-07T17:09:24.571Z,-0.70
2023-02-07T17:11:51.728Z,-0.70
2023-02-07T17:14:18.367Z,-0.70
2023-02-07T17:16:44.953Z,-0.80
2023-02-07T17:19:13.582Z,-0.80
2023-02-07T17:21:41.189Z,-0.80
2023-02-07T17:24:08.333Z,-0.70
2023-02-07T17:26:35.668Z,-0.80
2023-02-07T17:29:02.074Z,-0.80
2023-02-07T17:31:28.644Z,-0.80
2023-02-07T17:33:55.930Z,-0.80
2023-02-07T17:36:22.842Z,-0.70
2023-02-07T17:38:49.284Z,-0.80
2023-02-07T17:41:15.663Z,-0.80
2023-02-07T17:43:42.128Z,-0.80
2023-02-07T17:46:19.460Z,-0.40
2023-02-07T17:48:50.140Z,-0.80
2023-02-07T17:51:18.815Z,-0.90
2023-02-07T17:53:45.401Z,-0.80
2023-02-07T17:56:23.746Z,-0.80
2023-02-07T17:58:50.920Z,-0.90
2023-02-07T18:01:21.136Z,-0.90
2023-02-07T18:03:53.219Z,-0.90
2023-02-07T18:06:21.871Z,-0.80
2023-02-07T18:08:48.920Z,-0.80
2023-02-07T18:11:15.931Z,-0.80
2023-02-07T18:13:44.749Z,-0.90
2023-02-07T18:16:18.956Z,-0.90
2023-02-07T18:18:45.287Z,-0.90
2023-02-07T18:21:13.678Z,-0.90
2023-02-07T18:23:42.266Z,-0.80
2023-02-07T18:26:14.832Z,-0.90
2023-02-07T18:28:42.986Z,-0.90
2023-02-07T18:31:14.167Z,-0.80
2023-02-07T18:33:44.755Z,-0.90
2023-02-07T18:36:12.999Z,-0.90
2023-02-07T18:38:39.499Z,-0.90
2023-02-07T18:41:13.899Z,-0.90
2023-02-07T18:43:40.666Z,-0.90
2023-02-07T18:46:13.837Z,-0.90
2023-02-07T18:48:40.357Z,-0.90
2023-02-07T18:51:07.932Z,-0.90
2023-02-07T18:53:34.615Z,-0.80
2023-02-07T18:56:10.908Z,-0.90
2023-02-07T18:58:37.412Z,-1.00
2023-02-07T19:01:10.001Z,-1.00
2023-02-07T19:03:37.827Z,-1.00
2023-02-07T19:06:05.164Z,-0.90
2023-02-07T19:08:31.960Z,0.10
2023-02-07T19:11:01.223Z,-1.00
2023-02-07T19:13:28.645Z,-1.00
2023-02-07T19:16:08.664Z,-1.00
2023-02-07T19:18:35.311Z,-1.00
2023-02-07T19:21:15.564Z,-1.00
2023-02-07T19:23:42.398Z,-1.00
2023-02-07T19:26:09.503Z,1.50
2023-02-07T19:28:36.758Z,-1.10
2023-02-07T19:31:08.672Z,-1.00
2023-02-07T19:33:36.471Z,-1.10
2023-02-07T19:36:08.945Z,-1.10
2023-02-07T19:38:35.305Z,-1.00
2023-02-07T19:41:01.567Z,-1.10
2023-02-07T19:43:27.969Z,-1.10
2023-02-07T19:45:55.284Z,-1.10
2023-02-07T19:48:22.036Z,-1.10
2023-02-07T19:50:57.073Z,-1.10
2023-02-07T19:53:24.374Z,0.40
2023-02-07T19:55:50.792Z,-1.10
2023-02-07T19:58:17.390Z,-0.60
2023-02-07T20:00:45.588Z,-2.80
2023-02-07T20:03:13.020Z,-1.10
2023-02-07T20:05:44.182Z,-1.10
2023-02-07T20:08:11.390Z,-1.20
2023-02-07T20:10:42.098Z,-1.20
2023-02-07T20:13:09.079Z,-1.20
2023-02-07T20:15:42.749Z,-1.20
2023-02-07T20:18:10.125Z,-1.20
2023-02-07T20:20:41.710Z,-1.20
2023-02-07T20:23:09.913Z,-1.20
2023-02-07T20:25:37.010Z,-1.10
2023-02-07T20:28:04.849Z,-0.60
2023-02-07T20:30:32.344Z,-1.20
2023-02-07T20:32:59.100Z,-1.20
2023-02-07T20:35:25.798Z,-1.20
2023-02-07T20:37:52.444Z,-1.20
2023-02-07T20:40:19.379Z,-1.20
2023-02-07T20:42:46.021Z,-1.20
2023-02-07T20:45:13.571Z,-1.20
2023-02-07T20:47:41.794Z,-1.20
2023-02-07T20:50:08.496Z,-1.20
2023-02-07T20:52:37.276Z,-1.30
2023-02-07T20:55:08.360Z,-1.30
2023-02-07T20:57:34.996Z,-1.30
2023-02-07T21:00:01.453Z,-1.30
2023-02-07T21:02:28.862Z,-1.30
2023-02-07T21:04:55.694Z,-1.30
2023-02-07T21:07:24.402Z,-1.30
2023-02-07T21:09:51.269Z,-1.30
2023-02-07T21:12:17.923Z,-1.30
2023-02-07T21:14:44.438Z,-1.30
2023-02-07T21:17:10.932Z,-1.30
2023-02-07T21:19:37.554Z,-1.30
2023-02-07T21:22:06.701Z,-1.30
2023-02-07T21:24:33.147Z,-1.30
2023-02-07T21:27:03.425Z,-1.40
2023-02-07T21:29:29.788Z,-1.40
2023-02-07T21:31:56.188Z,-1.40
2023-02-07T21:34:25.742Z,-1.40
2023-02-07T21:36:52.819Z,-1.40
2023-02-07T21:39:19.082Z,-1.40
2023-02-07T21:41:46.161Z,-1.40
2023-02-07T21:44:13.557Z,-1.40
2023-02-07T21:46:42.940Z,-1.40
2023-02-07T21:49:14.573Z,-1.40
2023-02-07T21:51:44.750Z,-1.40
2023-02-07T21:54:11.172Z,-1.40
2023-02-07T21:56:39.511Z,-1.40
2023-02-07T21:59:12.515Z,-1.40
2023-02-07T22:01:39.116Z,-1.40
2023-02-07T22:04:06.654Z,-1.40
2023-02-07T22:06:35.871Z,-1.40
2023-02-07T22:09:04.414Z,-1.40
2023-02-07T22:11:32.360Z,-0.90
2023-02-07T22:13:59.567Z,-1.50
2023-02-07T22:16:27.518Z,-1.50
2023-02-07T22:18:54.012Z,-0.70
2023-02-07T22:21:22.184Z,-1.50
2023-02-07T22:23:48.734Z,0.60
2023-02-07T22:26:15.282Z,-1.50
2023-02-07T22:28:42.259Z,-1.50
2023-02-07T22:31:12.713Z,-1.50
2023-02-07T22:33:38.984Z,-0.60
2023-02-07T22:36:17.084Z,-1.00
2023-02-07T22:38:43.404Z,-1.60
2023-02-07T22:41:09.848Z,-1.60
2023-02-07T22:43:36.319Z,-1.40
2023-02-07T22:46:03.541Z,-1.60
2023-02-07T22:48:30.883Z,-1.60
2023-02-07T22:50:58.280Z,-1.60
2023-02-07T22:53:25.714Z,-1.60
2023-02-07T22:55:51.876Z,-1.60
2023-02-07T22:58:19.192Z,-1.60
2023-02-07T23:00:45.678Z,-1.60
2023-02-07T23:03:12.006Z,-1.60
2023-02-07T23:05:39.022Z,-1.70
2023-02-07T23:08:05.697Z,-1.70
2023-02-07T23:10:32.197Z,-1.70
2023-02-07T23:12:58.705Z,-1.40
2023-02-07T23:15:24.868Z,-0.70
2023-02-07T23:17:51.022Z,-1.80
2023-02-07T23:20:17.208Z,-1.70
2023-02-07T23:22:43.341Z,-1.70
2023-02-07T23:25:10.479Z,-1.70
2023-02-07T23:27:37.249Z,-1.70
2023-02-07T23:30:03.909Z,-1.70
2023-02-07T23:32:30.105Z,-1.70
2023-02-07T23:34:56.212Z,-1.20
2023-02-07T23:37:24.121Z,-1.00
2023-02-07T23:39:50.738Z,-1.60
2023-02-07T23:42:16.967Z,-1.00
2023-02-07T23:44:43.160Z,-1.60
2023-02-07T23:47:10.554Z,-1.70
2023-02-07T23:49:36.679Z,-1.70
2023-02-07T23:52:02.901Z,-1.10
2023-02-07T23:54:29.130Z,-1.60
2023-02-07T23:56:55.266Z,-1.70
2023-02-07T23:59:22.545Z,-1.60
